Time;durP1;ratioP1;P1;durP2;ratioP2;P2;SDS_P1;SDS_P2;PMS_P1;PMS_P2;Temp;Humidity;BMP_temperature;BMP_pressure;BME280_temperature;BME280_humidity;BME280_pressure;Samples;Min_cycle;Max_cycle;Signal;HPM_P1;HPM_P2
2023/03/01 00:02:28;;;;;;;6.40;3.10;;;;;;;-0.87;100.00;102886.00;6299801;28;20052;-76
2023/03/01 00:05:30;;;;;;;12.85;2.67;;;;;;;-0.95;100.00;102883.22;6323946;28;20062;-76
2023/03/01 00:08:33;;;;;;;5.43;2.67;;;;;;;-0.98;100.00;102890.84;6324520;28;20455;-75
2023/03/01 00:11:34;;;;;;;9.65;3.85;;;;;;;-0.98;100.00;102892.56;6322016;28;20454;-75
2023/03/01 00:14:36;;;;;;;9.98;2.45;;;;;;;-0.98;100.00;102887.41;6316227;28;20044;-75
2023/03/01 00:17:37;;;;;;;9.70;3.47;;;;;;;-1.00;100.00;102887.34;6324500;28;20356;-75
2023/03/01 00:20:40;;;;;;;4.40;2.72;;;;;;;-1.03;100.00;102887.28;6324767;28;20459;-75
2023/03/01 00:23:41;;;;;;;6.57;2.97;;;;;;;-1.08;100.00;102894.88;6324904;28;20048;-76
2023/03/01 00:26:43;;;;;;;4.18;2.47;;;;;;;-1.14;100.00;102886.06;6324430;28;20329;-75
2023/03/01 00:29:44;;;;;;;4.20;2.50;;;;;;;-1.15;100.00;102882.63;6324874;28;20055;-76
2023/03/01 00:32:46;;;;;;;5.22;2.50;;;;;;;-1.21;100.00;102884.16;6316499;28;20059;-76
2023/03/01 00:35:48;;;;;;;5.75;2.95;;;;;;;-1.22;100.00;102880.72;6309245;28;20055;-76
2023/03/01 00:38:50;;;;;;;4.40;2.35;;;;;;;-1.21;100.00;102879.88;6324511;28;20447;-75
2023/03/01 00:41:51;;;;;;;6.53;2.95;;;;;;;-1.16;100.00;102892.91;6324451;28;20059;-76
2023/03/01 00:44:52;;;;;;;3.22;2.47;;;;;;;-1.19;100.00;102885.06;6324623;28;20059;-76
2023/03/01 00:47:54;;;;;;;6.93;3.05;;;;;;;-1.25;100.00;102883.19;6324320;28;20063;-75
2023/03/01 00:50:57;;;;;;;6.15;2.92;;;;;;;-1.31;100.00;102878.72;6324563;28;20452;-76
2023/03/01 00:54:00;;;;;;;4.70;2.65;;;;;;;-1.36;100.00;102864.81;6325511;28;20044;-76
2023/03/01 00:57:02;;;;;;;4.35;2.45;;;;;;;-1.42;100.00;102874.06;6316976;28;20463;-76
2023/03/01 01:00:04;;;;;;;5.60;3.13;;;;;;;-1.45;100.00;102873.97;6303733;28;20040;-76
2023/03/01 01:03:05;;;;;;;6.03;2.72;;;;;;;-1.45;100.00;102877.44;6309270;28;20051;-76
2023/03/01 01:06:14;;;;;;;2.70;1.90;;;;;;;-1.45;100.00;102871.38;6328736;28;20044;-76
2023/03/01 01:09:17;;;;;;;4.80;2.50;;;;;;;-1.42;100.00;102872.34;6314499;28;20436;-76
2023/03/01 01:12:19;;;;;;;5.72;1.85;;;;;;;-1.50;100.00;102867.78;6303456;28;20067;-76
2023/03/01 01:15:20;;;;;;;9.35;3.17;;;;;;;-1.51;100.00;102872.06;6326287;28;20044;-76
2023/03/01 01:18:21;;;;;;;5.80;2.47;;;;;;;-1.55;100.00;102860.78;6328443;28;20044;-76
2023/03/01 01:21:25;;;;;;;9.50;2.88;;;;;;;-1.58;100.00;102855.56;6319932;28;20352;-76
2023/03/01 01:24:27;;;;;;;2.50;1.92;;;;;;;-1.66;100.00;102856.16;6328404;28;20051;-76
2023/03/01 01:27:30;;;;;;;8.02;3.42;;;;;;;-1.69;100.00;102851.75;6328071;28;20048;-76
2023/03/01 01:30:31;;;;;;;3.95;1.85;;;;;;;-1.68;100.00;102855.22;6303857;28;20052;-75
2023/03/01 01:33:33;;;;;;;7.15;2.22;;;;;;;-1.71;100.00;102839.69;6317695;28;20068;-76
2023/03/01 01:36:35;;;;;;;4.53;2.30;;;;;;;-1.70;100.00;102841.41;6303337;28;20059;-76
2023/03/01 01:39:37;;;;;;;3.22;2.08;;;;;;;-1.69;100.00;102846.59;6319647;28;20051;-76
2023/03/01 01:42:38;;;;;;;3.72;1.70;;;;;;;-1.68;100.00;102847.47;6327841;28;20052;-76
2023/03/01 01:45:40;;;;;;;6.40;3.13;;;;;;;-1.81;100.00;102852.28;6327624;28;20130;-76
2023/03/01 01:48:44;;;;;;;4.07;1.60;;;;;;;-1.83;100.00;102851.34;6327656;28;20040;-76
2023/03/01 01:51:50;;;;;;;2.72;1.70;;;;;;;-1.90;100.00;102844.25;6317153;28;20055;-76
2023/03/01 01:54:54;;;;;;;4.97;2.75;;;;;;;-2.03;100.00;102844.69;6306868;28;20052;-76
2023/03/01 01:57:59;;;;;;;4.90;2.08;;;;;;;-1.99;100.00;102848.25;6308380;28;20049;-76
2023/03/01 02:01:02;;;;;;;3.78;1.90;;;;;;;-1.99;100.00;102840.50;6314140;28;20048;-76
2023/03/01 02:04:06;;;;;;;4.03;1.50;;;;;;;-1.94;100.00;102850.13;6310582;28;20497;-76
2023/03/01 02:07:15;;;;;;;4.28;1.60;;;;;;;-1.92;100.00;102842.44;6304885;28;20494;-76
2023/03/01 02:10:17;;;;;;;4.35;1.65;;;;;;;-1.99;100.00;102840.50;6308119;28;20044;-76
2023/03/01 02:13:19;;;;;;;4.18;1.73;;;;;;;-2.07;100.00;102838.56;6327221;28;20051;-76
2023/03/01 02:16:20;;;;;;;5.82;1.50;;;;;;;-2.12;100.00;102840.13;6326931;28;20336;-76
2023/03/01 02:19:35;;;;;;;2.15;1.75;;;;;;;-2.06;100.00;102837.72;6326847;28;20340;-77
2023/03/01 02:22:38;;;;;;;3.78;1.50;;;;;;;-2.00;100.00;102831.00;6327129;28;20052;-76
2023/03/01 02:25:52;;;;;;;2.20;1.33;;;;;;;-2.06;100.00;102827.41;6326041;28;20056;-77
2023/03/01 02:28:55;;;;;;;5.15;1.92;;;;;;;-2.10;100.00;102817.84;6318536;28;20055;-77
2023/03/01 02:32:00;;;;;;;1.95;1.30;;;;;;;-2.10;100.00;102816.97;6301677;28;20095;-76
2023/03/01 02:35:06;;;;;;;4.90;2.28;;;;;;;-2.14;100.00;102828.88;6322231;28;20055;-77
2023/03/01 02:38:09;;;;;;;2.22;1.52;;;;;;;-2.22;100.00;102830.34;6305151;28;20056;-77
2023/03/01 02:41:14;;;;;;;5.15;2.05;;;;;;;-2.17;100.00;102820.19;6301692;28;20043;-77
2023/03/01 02:44:17;;;;;;;3.10;1.92;;;;;;;-2.18;100.00;102819.31;6323604;28;20374;-77
2023/03/01 02:47:18;;;;;;;6.25;2.45;;;;;;;-2.19;100.00;102824.41;6326602;28;20048;-77
2023/03/01 02:50:44;;;;;;;2.92;1.48;;;;;;;-2.21;100.00;102823.50;6326418;28;20051;-77
2023/03/01 02:53:55;;;;;;;2.95;1.40;;;;;;;-2.20;100.00;102814.94;6309562;28;20048;-77
2023/03/01 02:56:57;;;;;;;1.80;1.17;;;;;;;-2.26;100.00;102819.91;6320060;28;20450;-76
2023/03/01 03:00:06;;;;;;;1.85;1.55;;;;;;;-2.33;100.00;102811.94;6326039;28;20040;-77
2023/03/01 03:03:09;;;;;;;2.22;1.55;;;;;;;-2.30;100.00;102812.06;6325979;28;20071;-77
2023/03/01 03:06:10;;;;;;;4.13;1.88;;;;;;;-2.30;100.00;102818.91;6304236;28;20056;-77
2023/03/01 03:09:12;;;;;;;3.22;1.60;;;;;;;-2.36;100.00;102805.84;6301007;28;20048;-77
2023/03/01 03:12:14;;;;;;;5.90;1.65;;;;;;;-2.33;100.00;102796.50;6301060;28;20346;-77
2023/03/01 03:15:17;;;;;;;4.60;1.60;;;;;;;-2.34;100.00;102788.72;6314550;28;20048;-77
2023/03/01 03:18:19;;;;;;;6.90;2.50;;;;;;;-2.38;100.00;102789.47;6325310;28;20047;-77
2023/03/01 03:21:20;;;;;;;1.42;1.13;;;;;;;-2.42;100.00;102782.44;6302631;28;20117;-77
2023/03/01 03:24:21;;;;;;;2.42;1.58;;;;;;;-2.44;100.00;102778.97;6300294;28;20044;-77
2023/03/01 03:27:23;;;;;;;3.67;2.00;;;;;;;-2.42;100.00;102777.31;6315671;28;20675;-77
2023/03/01 03:30:27;;;;;;;8.13;1.73;;;;;;;-2.41;100.00;102773.91;6317140;28;20048;-77
2023/03/01 03:33:28;;;;;;;3.90;2.35;;;;;;;-2.39;100.00;102767.13;6325518;28;20044;-77
2023/03/01 03:36:30;;;;;;;3.50;1.65;;;;;;;-2.42;100.00;102767.00;6325011;28;20047;-77
2023/03/01 03:39:34;;;;;;;5.35;2.15;;;;;;;-2.51;100.00;102766.72;6325262;28;20040;-77
2023/03/01 03:42:35;;;;;;;2.50;1.50;;;;;;;-2.51;100.00;102772.72;6323157;28;20093;-78
2023/03/01 03:45:38;;;;;;;2.88;1.40;;;;;;;-2.45;100.00;102769.47;6324550;28;20075;-77
2023/03/01 03:48:41;;;;;;;3.28;1.27;;;;;;;-2.50;100.00;102766.75;6316737;28;20041;-78
2023/03/01 03:51:43;;;;;;;4.65;1.85;;;;;;;-2.50;100.00;102769.31;6307710;28;20052;-77
2023/03/01 03:54:44;;;;;;;3.85;1.58;;;;;;;-2.63;100.00;102765.50;6299933;28;20056;-78
2023/03/01 03:57:51;;;;;;;8.93;1.50;;;;;;;-2.59;100.00;102761.28;6317363;28;20174;-78
2023/03/01 04:00:56;;;;;;;4.15;1.65;;;;;;;-2.56;100.00;102774.28;6306028;28;20447;-78
2023/03/01 04:04:03;;;;;;;2.25;1.35;;;;;;;-2.55;100.00;102768.28;6299991;28;20131;-78
2023/03/01 04:07:05;;;;;;;3.03;1.40;;;;;;;-2.51;100.00;102761.56;6299943;28;20136;-78
2023/03/01 04:10:09;;;;;;;6.88;2.40;;;;;;;-2.53;100.00;102758.06;6299889;28;20041;-78
2023/03/01 04:13:12;;;;;;;3.65;1.48;;;;;;;-2.57;100.00;102757.09;6299959;28;20051;-78
2023/03/01 04:16:15;;;;;;;3.25;1.67;;;;;;;-2.63;100.00;102762.03;6313067;28;20495;-78
2023/03/01 04:19:16;;;;;;;4.82;1.83;;;;;;;-2.76;100.00;102765.91;6325016;28;20044;-78
2023/03/01 04:22:18;;;;;;;2.60;1.75;;;;;;;-2.96;100.00;102762.63;6325263;28;20040;-78
2023/03/01 04:25:19;;;;;;;9.48;2.47;;;;;;;-2.95;100.00;102761.81;6323035;28;20059;-78
2023/03/01 04:28:21;;;;;;;12.73;1.80;;;;;;;-2.88;100.00;102757.75;6324824;28;20348;-78
2023/03/01 04:31:24;;;;;;;3.33;1.55;;;;;;;-2.84;100.00;102760.47;6314959;28;20048;-78
2023/03/01 04:34:26;;;;;;;3.33;1.42;;;;;;;-2.94;100.00;102757.56;6304231;28;20051;-78
2023/03/01 04:37:29;;;;;;;5.43;1.67;;;;;;;-2.94;100.00;102763.56;6304031;28;20040;-78
2023/03/01 04:40:30;;;;;;;4.80;1.55;;;;;;;-2.94;100.00;102765.28;6304037;28;20045;-78
2023/03/01 04:43:33;;;;;;;3.25;1.42;;;;;;;-2.94;100.00;102765.28;6295573;28;20049;-78
2023/03/01 04:46:36;;;;;;;9.05;1.33;;;;;;;-2.96;100.00;102761.75;6288895;28;20060;-78
2023/03/01 04:49:38;;;;;;;1.38;1.15;;;;;;;-2.93;100.00;102761.88;6303628;28;20048;-79
2023/03/01 04:52:39;;;;;;;1.90;1.23;;;;;;;-2.91;100.00;102760.22;6308495;28;20078;-79
2023/03/01 04:55:40;;;;;;;5.10;1.75;;;;;;;-2.97;100.00;102763.44;6296232;28;20556;-79
2023/03/01 04:58:42;;;;;;;3.53;2.13;;;;;;;-3.00;100.00;102758.19;6319381;28;20059;-79
2023/03/01 05:01:45;;;;;;;3.75;1.80;;;;;;;-3.00;100.00;102749.59;6321646;28;20341;-79
2023/03/01 05:04:46;;;;;;;5.93;2.25;;;;;;;-3.00;100.00;102758.19;6315054;28;20040;-79
2023/03/01 05:07:48;;;;;;;8.55;2.38;;;;;;;-3.00;100.00;102753.06;6309039;28;20045;-78
2023/03/01 05:10:51;;;;;;;3.47;1.77;;;;;;;-3.06;100.00;102756.28;6314909;28;20055;-79
2023/03/01 05:13:54;;;;;;;3.75;1.83;;;;;;;-3.10;100.00;102764.72;6321858;28;20048;-79
2023/03/01 05:17:03;;;;;;;2.03;1.52;;;;;;;-3.08;100.00;102764.78;6294755;28;20513;-78
2023/03/01 05:20:08;;;;;;;2.85;1.73;;;;;;;-3.12;100.00;102758.66;6302124;28;20469;-79
2023/03/01 05:23:09;;;;;;;2.05;1.60;;;;;;;-3.10;100.00;102754.44;6310648;28;20051;-80
2023/03/01 05:26:12;;;;;;;2.85;2.05;;;;;;;-3.08;100.00;102757.06;6300166;28;20047;-79
2023/03/01 05:29:13;;;;;;;6.35;2.58;;;;;;;-3.08;100.00;102752.81;6311244;28;20363;-79
2023/03/01 05:32:16;;;;;;;2.95;2.08;;;;;;;-3.03;100.00;102752.09;6292267;28;20044;-79
2023/03/01 05:35:18;;;;;;;6.70;2.55;;;;;;;-3.07;100.00;102758.81;6311702;28;20118;-78
2023/03/01 05:38:22;;;;;;;2.65;1.67;;;;;;;-3.10;100.00;102754.44;6309561;28;20185;-79
2023/03/01 05:41:23;;;;;;;3.05;1.98;;;;;;;-3.17;100.00;102760.19;6301425;28;20052;-79
2023/03/01 05:44:25;;;;;;;5.25;2.38;;;;;;;-3.17;100.00;102760.19;6310580;28;20428;-79
2023/03/01 05:47:28;;;;;;;4.18;2.05;;;;;;;-3.26;100.00;102757.31;6310719;28;20047;-79
2023/03/01 05:50:32;;;;;;;3.03;1.95;;;;;;;-3.28;100.00;102756.34;6310917;28;20475;-79
2023/03/01 05:53:33;;;;;;;3.53;1.98;;;;;;;-3.24;100.00;102755.66;6310587;28;20052;-79
2023/03/01 05:56:35;;;;;;;4.13;1.65;;;;;;;-3.27;100.00;102758.13;6314529;28;20045;-79
2023/03/01 05:59:37;;;;;;;3.70;2.13;;;;;;;-3.29;100.00;102757.19;6315717;28;20055;-79
2023/03/01 06:02:40;;;;;;;2.92;1.77;;;;;;;-3.34;100.00;102756.16;6313561;28;20044;-79
2023/03/01 06:05:41;;;;;;;6.10;1.85;;;;;;;-3.32;100.00;102765.69;6313034;28;20044;-79
2023/03/01 06:08:43;;;;;;;2.30;1.35;;;;;;;-3.25;100.00;102768.47;6314649;28;20040;-79
2023/03/01 06:11:44;;;;;;;2.92;1.52;;;;;;;-3.21;100.00;102772.88;6316926;28;20134;-79
2023/03/01 06:14:47;;;;;;;2.30;1.52;;;;;;;-3.33;100.00;102769.03;6315457;28;20048;-79
2023/03/01 06:17:50;;;;;;;4.93;1.70;;;;;;;-3.29;100.00;102775.19;6316558;28;20123;-79
2023/03/01 06:20:53;;;;;;;7.28;2.40;;;;;;;-3.24;100.00;102777.91;6309951;28;20447;-79
2023/03/01 06:23:55;;;;;;;3.78;2.00;;;;;;;-3.20;100.00;102766.91;6310519;28;20051;-79
2023/03/01 06:26:56;;;;;;;4.93;2.17;;;;;;;-3.19;100.00;102769.53;6310598;28;20052;-79
2023/03/01 06:29:57;;;;;;;9.75;2.42;;;;;;;-3.15;100.00;102767.97;6307362;28;20060;-79
2023/03/01 06:33:01;;;;;;;5.75;2.70;;;;;;;-3.15;100.00;102768.81;6315118;28;20047;-79
2023/03/01 06:36:03;;;;;;;6.45;2.55;;;;;;;-3.16;100.00;102753.34;6314625;28;20476;-79
2023/03/01 06:39:05;;;;;;;8.93;2.28;;;;;;;-3.16;100.00;102754.22;6311729;28;20161;-79
2023/03/01 06:42:07;;;;;;;10.30;3.35;;;;;;;-3.17;100.00;102751.63;6312238;28;20467;-80
2023/03/01 06:45:10;;;;;;;8.98;2.60;;;;;;;-3.17;100.00;102760.19;6322374;28;20047;-79
2023/03/01 06:48:13;;;;;;;12.60;3.95;;;;;;;-3.15;100.00;102758.53;6326016;28;20047;-79
2023/03/01 06:51:14;;;;;;;8.18;2.90;;;;;;;-3.13;100.00;102762.06;6326182;28;20039;-79
2023/03/01 06:54:17;;;;;;;5.07;2.55;;;;;;;-3.07;100.00;102761.41;6324161;28;20044;-79
2023/03/01 06:57:18;;;;;;;4.65;2.75;;;;;;;-3.02;100.00;102759.84;6325745;28;20088;-79
2023/03/01 07:00:21;;;;;;;15.93;2.40;;;;;;;-2.97;100.00;102762.59;6311264;28;20417;-79
2023/03/01 07:03:24;;;;;;;4.35;1.27;;;;;;;-2.93;100.00;102767.00;6324310;28;20055;-79
2023/03/01 07:06:25;;;;;;;2.00;1.25;;;;;;;-2.86;100.00;102772.44;6308840;28;20048;-79
2023/03/01 07:09:27;;;;;;;7.13;2.35;;;;;;;-2.82;100.00;102768.25;6315435;28;20044;-79
2023/03/01 07:12:28;;;;;;;5.03;1.60;;;;;;;-2.79;100.00;102762.34;6314571;28;20056;-79
2023/03/01 07:15:29;;;;;;;4.72;2.25;;;;;;;-2.74;100.00;102758.22;6321819;28;20059;-77
2023/03/01 07:18:32;;;;;;;5.10;2.13;;;;;;;-2.71;100.00;102756.63;6317865;28;20055;-76
2023/03/01 07:21:34;;;;;;;2.53;1.67;;;;;;;-2.67;100.00;102757.63;6302151;28;20040;-78
2023/03/01 07:24:35;;;;;;;5.80;2.47;;;;;;;-2.61;100.00;102757.81;6300803;28;20364;-77
2023/03/01 07:27:37;;;;;;;2.50;1.63;;;;;;;-2.53;100.00;102752.94;6308010;28;20053;-78
2023/03/01 07:30:40;;;;;;;4.28;1.95;;;;;;;-2.49;100.00;102752.22;6310633;28;20055;-77
2023/03/01 07:33:43;;;;;;;3.08;1.85;;;;;;;-2.44;100.00;102743.81;6312658;28;20043;-77
2023/03/01 07:36:45;;;;;;;6.72;2.35;;;;;;;-2.37;100.00;102748.31;6303017;28;20052;-77
2023/03/01 07:39:46;;;;;;;2.80;1.75;;;;;;;-2.31;100.00;102745.94;6301573;28;20056;-78
2023/03/01 07:42:47;;;;;;;3.03;2.08;;;;;;;-2.22;100.00;102739.34;6307615;28;20051;-79
2023/03/01 07:45:49;;;;;;;5.63;2.42;;;;;;;-2.17;100.00;102736.06;6316397;28;20356;-80
2023/03/01 07:48:51;;;;;;;3.85;2.40;;;;;;;-2.11;100.00;102737.97;6315927;28;20432;-79
2023/03/01 07:51:53;;;;;;;5.50;2.50;;;;;;;-2.08;100.00;102733.78;6318970;28;20454;-79
2023/03/01 07:54:54;;;;;;;6.47;2.50;;;;;;;-2.01;100.00;102739.09;6323448;28;20056;-79
2023/03/01 07:57:55;;;;;;;6.13;2.47;;;;;;;-1.95;100.00;102735.03;6322366;28;20048;-79
2023/03/01 08:00:57;;;;;;;3.92;2.33;;;;;;;-1.91;100.00;102738.56;6299847;28;20048;-79
2023/03/01 08:03:59;;;;;;;6.03;2.50;;;;;;;-1.83;100.00;102742.22;6321216;28;20044;-79
2023/03/01 08:07:01;;;;;;;3.58;2.30;;;;;;;-1.77;100.00;102744.13;6313326;28;20446;-79
2023/03/01 08:10:02;;;;;;;3.92;2.28;;;;;;;-1.72;100.00;102735.72;6330080;28;20052;-79
2023/03/01 08:13:04;;;;;;;6.65;2.67;;;;;;;-1.62;100.00;102739.44;6317792;28;20069;-79
2023/03/01 08:16:08;;;;;;;2.38;1.80;;;;;;;-1.55;100.00;102731.88;6312980;28;20345;-79
2023/03/01 08:19:12;;;;;;;3.80;2.28;;;;;;;-1.51;100.00;102740.59;6326128;28;20048;-79
2023/03/01 08:22:14;;;;;;;3.35;2.00;;;;;;;-1.48;100.00;102735.53;6319288;28;20379;-79
2023/03/01 08:25:15;;;;;;;5.38;2.22;;;;;;;-1.42;100.00;102745.13;6319797;28;20329;-78
2023/03/01 08:28:16;;;;;;;3.33;1.77;;;;;;;-1.34;100.00;102730.75;6316174;28;20056;-78
2023/03/01 08:31:20;;;;;;;6.20;2.30;;;;;;;-1.25;100.00;102733.59;6317755;28;20063;-79
2023/03/01 08:34:23;;;;;;;4.93;2.05;;;;;;;-1.18;100.00;102737.19;6321619;28;20044;-78
2023/03/01 08:37:24;;;;;;;2.95;2.22;;;;;;;-1.11;100.00;102732.25;6318516;28;20055;-78
2023/03/01 08:40:26;;;;;;;3.25;1.90;;;;;;;-1.06;100.00;102730.66;6320846;28;20047;-79
2023/03/01 08:43:27;;;;;;;8.13;2.67;;;;;;;-0.98;100.00;102728.28;6320354;28;20044;-79
2023/03/01 08:46:29;;;;;;;5.45;2.47;;;;;;;-0.90;100.00;102723.34;6316795;28;20341;-78
2023/03/01 08:49:33;;;;;;;5.30;2.03;;;;;;;-0.81;100.00;102715.84;6329573;28;20051;-78
2023/03/01 08:52:34;;;;;;;4.28;2.35;;;;;;;-0.74;100.00;102714.25;6320165;28;20138;-78
2023/03/01 08:55:35;;;;;;;5.13;2.67;;;;;;;-0.69;100.00;102710.09;6315768;28;20471;-79
2023/03/01 08:58:37;;;;;;;6.95;2.78;;;;;;;-0.59;100.00;102714.63;6328624;28;20054;-78
2023/03/01 09:01:39;;;;;;;4.38;1.90;;;;;;;-0.48;100.00;102713.19;6329177;28;20051;-78
2023/03/01 09:04:42;;;;;;;4.70;1.83;;;;;;;-0.43;100.00;102708.13;6328772;28;20048;-78
2023/03/01 09:07:44;;;;;;;4.53;2.33;;;;;;;-0.37;100.00;102711.72;6328352;28;20055;-78
2023/03/01 09:10:45;;;;;;;3.72;2.42;;;;;;;-0.27;100.00;102708.53;6323743;28;20059;-78
2023/03/01 09:13:48;;;;;;;6.25;2.30;;;;;;;-0.22;100.00;102702.59;6303195;28;20052;-78
2023/03/01 09:16:51;;;;;;;11.43;3.60;;;;;;;-0.13;100.00;102703.69;6321830;28;20052;-78
2023/03/01 09:19:53;;;;;;;5.55;2.67;;;;;;;-0.05;100.00;102707.28;6328337;28;20454;-78
2023/03/01 09:22:55;;;;;;;3.47;2.47;;;;;;;0.08;100.00;102711.00;6326749;28;20051;-78
2023/03/01 09:25:56;;;;;;;7.47;3.75;;;;;;;0.12;100.00;102704.19;6328207;28;20052;-78
2023/03/01 09:28:58;;;;;;;8.27;3.40;;;;;;;0.20;100.00;102697.50;6310556;28;20044;-77
2023/03/01 09:32:00;;;;;;;9.65;2.63;;;;;;;0.30;100.00;102695.97;6317961;28;20480;-75
2023/03/01 09:35:04;;;;;;;5.10;2.60;;;;;;;0.43;99.47;102701.41;6317987;28;20154;-74
2023/03/01 09:38:05;;;;;;;7.82;2.88;;;;;;;0.55;99.23;102700.78;6317719;28;20051;-74
2023/03/01 09:41:20;;;;;;;4.53;2.05;;;;;;;0.74;96.73;102704.59;6317524;28;20344;-74
2023/03/01 09:44:29;;;;;;;3.70;2.42;;;;;;;0.79;96.58;102692.59;6316945;28;20377;-78
2023/03/01 09:47:35;;;;;;;4.45;2.63;;;;;;;0.83;96.85;102690.97;6315350;28;20057;-77
2023/03/01 09:50:40;;;;;;;6.47;2.67;;;;;;;0.88;95.69;102691.91;6313494;28;20048;-79
2023/03/01 09:53:42;;;;;;;8.18;3.42;;;;;;;0.95;96.22;102693.75;6312987;28;20428;-77
2023/03/01 09:56:52;;;;;;;5.68;2.08;;;;;;;1.01;95.53;102702.50;6317646;28;20051;-77
2023/03/01 10:00:04;;;;;;;4.13;2.22;;;;;;;1.10;95.08;102695.75;6317168;28;20432;-77
2023/03/01 10:03:16;;;;;;;3.60;2.08;;;;;;;1.17;94.74;102695.84;6317164;28;20043;-77
2023/03/01 10:06:23;;;;;;;6.45;2.55;;;;;;;1.30;94.31;102689.16;6314846;28;20044;-77
2023/03/01 10:09:25;;;;;;;4.57;2.00;;;;;;;1.42;93.97;102691.09;6324184;28;20157;-77
2023/03/01 10:12:35;;;;;;;5.35;2.80;;;;;;;1.49;92.38;102688.59;6327653;28;20170;-77
2023/03/01 10:15:42;;;;;;;5.50;2.67;;;;;;;1.63;91.96;102695.72;6327056;28;20059;-77
2023/03/01 10:18:49;;;;;;;4.93;2.60;;;;;;;1.64;93.04;102693.16;6327260;28;20436;-77
2023/03/01 10:21:52;;;;;;;5.32;2.53;;;;;;;1.74;90.76;102692.44;6323261;28;20348;-77
2023/03/01 10:24:54;;;;;;;14.35;1.75;;;;;;;1.77;91.50;102694.19;6312468;28;20048;-76
2023/03/01 10:28:02;;;;;;;6.15;2.85;;;;;;;1.88;91.31;102691.78;6326074;28;20056;-76
2023/03/01 10:31:03;;;;;;;3.78;1.80;;;;;;;2.05;90.21;102679.91;6326871;28;20044;-76
2023/03/01 10:34:10;;;;;;;7.68;2.70;;;;;;;2.15;87.25;102675.72;6326751;28;20040;-77
2023/03/01 10:37:16;;;;;;;6.55;2.40;;;;;;;2.21;88.75;102675.78;6313020;28;20049;-77
2023/03/01 10:40:18;;;;;;;4.20;2.17;;;;;;;2.35;88.54;102674.22;6301425;28;20475;-76
2023/03/01 10:43:21;;;;;;;3.40;2.05;;;;;;;2.39;86.44;102673.41;6301250;28;20044;-76
2023/03/01 10:46:24;;;;;;;5.47;1.73;;;;;;;2.45;84.38;102675.19;6317849;28;20040;-76
2023/03/01 10:49:26;;;;;;;5.93;2.40;;;;;;;2.56;83.96;102678.78;6324809;28;20044;-76
2023/03/01 10:52:33;;;;;;;2.60;1.42;;;;;;;2.69;82.37;102665.09;6324673;28;20166;-76
2023/03/01 10:55:37;;;;;;;2.90;1.40;;;;;;;2.89;81.46;102664.41;6300959;28;20052;-76
2023/03/01 10:58:40;;;;;;;1.98;1.48;;;;;;;3.05;81.52;102667.16;6313346;28;20360;-76
2023/03/01 11:01:41;;;;;;;2.00;1.33;;;;;;;3.15;80.24;102662.03;6313027;28;20192;-73
2023/03/01 11:04:57;;;;;;;1.95;1.30;;;;;;;3.26;77.78;102653.47;6313792;28;20056;-73
2023/03/01 11:08:03;;;;;;;2.17;1.52;;;;;;;3.38;77.24;102659.63;6300286;28;20044;-76
2023/03/01 11:11:07;;;;;;;3.03;1.63;;;;;;;3.49;78.26;102658.81;6300565;28;20106;-76
2023/03/01 11:14:17;;;;;;;7.28;1.67;;;;;;;3.79;76.73;102657.28;6300265;28;20044;-75
2023/03/01 11:17:25;;;;;;;2.70;1.50;;;;;;;3.83;75.03;102652.97;6300380;28;20045;-76
2023/03/01 11:20:31;;;;;;;4.25;1.80;;;;;;;3.87;75.99;102645.19;6305652;28;20051;-76
2023/03/01 11:23:35;;;;;;;5.18;1.75;;;;;;;4.24;76.17;102647.94;6325379;28;20048;-73
2023/03/01 11:26:40;;;;;;;3.28;2.10;;;;;;;4.37;73.65;102648.88;6325350;28;20055;-73
2023/03/01 11:29:46;;;;;;;4.53;2.33;;;;;;;4.37;73.70;102641.94;6325263;28;20329;-74
2023/03/01 11:32:55;;;;;;;3.13;1.92;;;;;;;4.42;72.68;102637.59;6325373;28;20051;-76
2023/03/01 11:36:02;;;;;;;4.60;1.97;;;;;;;4.56;70.77;102642.84;6325297;28;20071;-76
2023/03/01 11:39:19;;;;;;;3.30;1.65;;;;;;;4.53;70.05;102638.47;6325236;28;20044;-76
2023/03/01 11:42:28;;;;;;;4.53;1.20;;;;;;;4.62;71.89;102636.75;6325274;28;20047;-76
2023/03/01 11:45:35;;;;;;;;;;;;;;;4.73;69.99;102635.94;6301248;28;20049;-76
2023/03/01 11:48:50;;;;;;;2.67;1.17;;;;;;;4.85;69.05;102624.63;6317040;28;19931;-76
2023/03/01 11:51:59;;;;;;;2.75;1.05;;;;;;;5.26;65.60;102634.19;6323440;28;20043;-76
2023/03/01 11:55:18;;;;;;;6.85;1.17;;;;;;;5.29;67.41;102629.84;6325171;28;20044;-76
2023/03/01 11:58:39;;;;;;;1.85;1.17;;;;;;;5.51;66.65;102629.81;6322183;28;20440;-76
2023/03/01 12:01:51;;;;;;;2.58;1.13;;;;;;;5.71;64.36;102616.72;6325014;28;20051;-76
2023/03/01 12:05:07;;;;;;;1.52;0.93;;;;;;;5.89;64.28;102611.44;6325018;28;20052;-76
2023/03/01 12:08:18;;;;;;;3.25;1.40;;;;;;;6.31;62.12;102597.34;6324609;28;20347;-76
2023/03/01 12:11:30;;;;;;;2.55;1.20;;;;;;;6.45;61.87;102599.88;6325082;28;20047;-76
2023/03/01 12:14:49;;;;;;;2.03;1.20;;;;;;;6.60;59.65;102593.69;6324541;28;20051;-76
2023/03/01 12:18:11;;;;;;;3.90;2.08;;;;;;;6.76;60.04;102594.41;6324712;28;20048;-75
2023/03/01 12:21:24;;;;;;;4.15;1.85;;;;;;;6.86;58.89;102593.50;6325056;28;20459;-75
2023/03/01 12:25:01;;;;;;;5.90;2.05;;;;;;;6.90;58.52;102579.50;6324524;28;20047;-76
2023/03/01 12:28:25;;;;;;;3.58;1.63;;;;;;;7.13;58.00;102581.94;6305558;28;20051;-75
2023/03/01 12:32:02;;;;;;;2.60;1.50;;;;;;;7.11;56.38;102574.06;6324841;28;20059;-75
2023/03/01 12:35:30;;;;;;;2.53;1.17;;;;;;;7.12;58.38;102559.25;6319262;28;20137;-76
2023/03/01 12:38:38;;;;;;;2.65;1.55;;;;;;;7.14;57.27;102565.34;6318104;28;20060;-76
2023/03/01 12:41:47;;;;;;;4.30;1.85;;;;;;;7.50;59.92;102558.88;6324367;28;20051;-76
2023/03/01 12:45:17;;;;;;;4.57;1.63;;;;;;;7.55;57.77;102561.44;6314143;28;20361;-75
2023/03/01 12:48:29;;;;;;;3.00;1.50;;;;;;;7.50;56.08;102552.78;6299327;28;20045;-76
2023/03/01 12:51:34;;;;;;;4.13;1.45;;;;;;;7.54;56.15;102547.47;6302921;28;20052;-76
2023/03/01 12:54:37;;;;;;;3.67;1.70;;;;;;;7.77;56.46;102538.50;6303920;28;20139;-76
2023/03/01 12:57:43;;;;;;;5.35;1.75;;;;;;;7.95;54.20;102529.50;6312359;28;20344;-76
2023/03/01 13:00:56;;;;;;;1.70;0.98;;;;;;;7.81;56.04;102529.69;6321716;28;20352;-76
2023/03/01 13:04:10;;;;;;;1.85;1.30;;;;;;;7.96;56.79;102533.88;6317250;28;20049;-76
2023/03/01 13:07:29;;;;;;;6.13;1.90;;;;;;;7.90;56.02;102534.78;6320393;28;20049;-76
2023/03/01 13:10:35;;;;;;;4.28;1.83;;;;;;;8.01;55.04;102525.06;6328036;28;20055;-76
2023/03/01 13:13:36;;;;;;;2.67;1.67;;;;;;;8.27;56.30;102519.44;6320344;28;20051;-76
2023/03/01 13:16:44;;;;;;;3.80;1.77;;;;;;;8.42;55.48;102513.13;6328352;28;20056;-76
2023/03/01 13:19:57;;;;;;;4.75;2.33;;;;;;;8.62;53.95;102511.03;6328686;28;20044;-75
2023/03/01 13:23:09;;;;;;;1.92;1.10;;;;;;;8.66;53.09;102503.13;6328320;28;20173;-76
2023/03/01 13:26:16;;;;;;;1.75;1.27;;;;;;;8.51;52.74;102512.13;6326619;28;20055;-76
2023/03/01 13:29:26;;;;;;;3.08;1.00;;;;;;;8.52;52.68;102505.97;6325422;28;20051;-74
2023/03/01 13:32:33;;;;;;;4.60;1.40;;;;;;;8.38;52.68;102507.06;6328463;28;20044;-75
2023/03/01 13:35:42;;;;;;;2.88;1.23;;;;;;;8.35;54.51;102506.22;6327872;28;20044;-76
2023/03/01 13:38:47;;;;;;;3.13;1.50;;;;;;;8.51;53.98;102501.63;6328143;28;20052;-76
2023/03/01 13:41:51;;;;;;;4.75;1.73;;;;;;;8.54;55.49;102502.47;6309371;28;20611;-75
2023/03/01 13:44:53;;;;;;;2.83;1.50;;;;;;;8.59;51.82;102497.13;6302630;28;20044;-75
2023/03/01 13:47:59;;;;;;;2.50;1.42;;;;;;;8.51;51.84;102494.63;6302598;28;20456;-75
2023/03/01 13:51:04;;;;;;;4.63;1.63;;;;;;;8.64;51.39;102488.31;6302784;28;20052;-74
2023/03/01 13:54:05;;;;;;;2.60;1.23;;;;;;;9.00;51.05;102483.28;6302296;28;20340;-75
2023/03/01 13:57:25;;;;;;;1.73;1.20;;;;;;;8.94;51.19;102483.38;6313199;28;20048;-74
2023/03/01 14:00:34;;;;;;;2.00;1.27;;;;;;;9.12;50.40;102476.94;6326889;28;20044;-74
2023/03/01 14:03:42;;;;;;;4.45;2.00;;;;;;;9.16;48.67;102473.34;6326693;28;20047;-75
2023/03/01 14:06:43;;;;;;;2.40;1.33;;;;;;;9.51;49.90;102464.78;6319908;28;20351;-75
2023/03/01 14:09:48;;;;;;;3.22;1.40;;;;;;;9.47;49.94;102451.75;6318988;28;20064;-75
2023/03/01 14:12:55;;;;;;;2.72;1.15;;;;;;;9.20;51.03;102468.91;6308221;28;20055;-75
2023/03/01 14:16:11;;;;;;;2.40;1.50;;;;;;;9.06;47.96;102448.22;6304668;28;20441;-75